メインページ
METAR-TAF:

METAR-TAF

空港 :

チューク国際空港

Weno, ミクロネシア

緯度: 07-28N, 経度: 151-51E, 海抜: 3m

現時点の気象観測

当レポートは23分前の21:53(UTC)に作成
変向風 5kt
気温 31°C
湿度 79%
気圧 1010 hPa
視程: 24.1km
高度1400ftの雲はほとんどない
高度29000ftの雲は散在している

METAR: PTKK 202153Z VRB05KT 15SM FEW014 SCT290 31/27 A2982 RMK SLP100 T03110267

時間: 08:16 (22:16 UTC)

予報

当レポートは4時間56分前の17:20(UTC)に作成
予報は20日の 18時(UTC)から 21日の 18時(UTC)まで有効
西の風 4kt
視程: 10km
高度1400ftの雲はほとんどない
高度3000ftの雲は散在している

TAF: PTKK 201720Z 2018/2118 26004KT P6SM FEW014 SCT030

4,000以上の空港の気象観測と天気予報(METAR報とTAF報)

利用可能な観測所は地図上に黄色い丸と赤い丸で示す。

丸の上にカーソルを重ねると観測所名を参照できる。

次にクリックすると気象観測と天気予報を参照できる。

マップの切り替え:黒色「×」印の緑ボタンをクリックして拡大、「-」印の緑ボタンをクリックして縮小、緑色の三角印をクリックして隣りの地図に切り替え


METAR-TAF: